Barmouth, United Kingdom
Current Conditions -  °F | °C
As of 1:50 PM on Wednesday 22 Oct 2014 (Local Time) from EGOV Reporting Station
Broken Clouds Broken Clouds  
Wind Chill: 54°   Ceiling: 5500
Heat Index: 54°   Visibility: 6mi
Dew Point: 50°   Wind: 22mph
Humidity: 88%   Direction: 230°SW
Pressure: 30.21"   Gusts: NA
Location:  52.72°N, 4.06°W
Report Text: EGOV 221250Z 23019KT 9999 FEW014 SCT043 BKN055 12/10 Q1023 BLU NOSIG
Loading
Personal Weather Stations






























Interactive Weather Map New forecast layout! Learn more

10-Day Weather Forecast

Advertisements
Track Severe Weather on mobile